首页
METAR-TAF:

METAR-TAF

机场 :

波西尔城, 路易斯安那州, 美国

纬度: 32-30N, 经度: 093-40W, 海拔: 51米

当前天气观测

该预报发布于49分钟前的22:56 UTC
风速6节,风向东转东北
温度 13°C
湿度 47%
气压 1022 hPa
能見度: 16.1公里
天空无云

METAR: KBAD 022256Z AUTO 07006KT 10SM CLR 13/02 A3017 RMK AO2 SLP220 T01330019

时间: 17:45 (23:45 UTC)

预报

该预报发布于5小时和45分钟前的18:00 UTC
预报有效从02日的 18点(UTC)到 03日的 24点(UTC)
风速10节,风向东北
能见度10公里或以上
散云层高于10000英尺
成为
从 03日的 00点(UTC)到 03日的 01点(UTC)
风速2节,风向多变
能见度10公里或以上
天空无云
成为
从 03日的 20点(UTC)到 03日的 21点(UTC)
风速4节,风向南转南东
能见度10公里或以上
天空无云

TAF: KBAD 021800Z 0218/0324 05010KT 9999 SCT100 QNH3018INS BECMG 0300/0301 VRB02KT 9999 SKC QNH3017INS BECMG 0320/0321 15004KT 9999 SKC QNH3015INS TX12/0221Z TN00/0313Z

超过4000个机场的气象观测和天气预报(METAR&TAF报告)。

可查询的气象台以黄色和红色小点在地图上表示。

将鼠标移到小点上方,可查看气象台名称。

然后点击查看天气观测和预报。

如需切换地图:点击带黑十字的绿色按钮放大地图;点击带横线的绿色按钮缩小地图;或者点击绿色箭头查看邻近地区的地图。


METAR-TAF: